Terminal Aerodrome Forecast
Issued by NWS Cleveland, OH

Home | Current Version | Previous Version | Text Only | Print | Product List | Glossary Off
Versions: 1 2 3 4 5 6 7 8 9 10 11 12 13 14 15 16 17 18

000
FTUS41 KCLE 301000 AAA
TAFMFD
TAF AMD
KMFD 301051Z 3011/0106 22003KT P6SM SCT050 BKN080
     FM301100 29006KT 4SM -RA BR SCT006 OVC050
      TEMPO 3012/3013 2SM -TSRA BR OVC006CB
     FM301400 32006KT P6SM OVC006
      TEMPO 3014/3016 4SM BR
     FM301900 35006KT P6SM BKN012 OVC025
     FM010400 35003KT 2SM BR OVC003=

USA.gov is the U.S. government's official web portal to all federal, state and local government web resources and services.